createdAt,value
2018-02-14T00:00:49.494Z,36.10
2018-02-14T00:03:17.566Z,44.53
2018-02-14T00:05:45.628Z,25.10
2018-02-14T00:08:13.713Z,39.28
2018-02-14T00:10:41.797Z,28.87
2018-02-14T00:13:09.859Z,28.27
2018-02-14T00:15:37.925Z,32.07
2018-02-14T00:18:06.741Z,26.17
2018-02-14T00:20:34.835Z,30.87
2018-02-14T00:23:02.917Z,29.33
2018-02-14T00:25:32.080Z,24.63
2018-02-14T00:28:01.266Z,33.70
2018-02-14T00:30:29.382Z,31.75
2018-02-14T00:32:57.553Z,29.97
2018-02-14T00:35:25.635Z,36.90
2018-02-14T00:37:53.694Z,26.37
2018-02-14T00:40:21.765Z,28.47
2018-02-14T00:42:49.832Z,32.90
2018-02-14T00:45:17.942Z,26.87
2018-02-14T00:47:46.021Z,34.67
2018-02-14T00:50:14.110Z,33.57
2018-02-14T00:52:42.169Z,35.63
2018-02-14T00:55:10.245Z,31.77
2018-02-14T00:57:38.325Z,34.93
2018-02-14T01:00:06.451Z,29.65
2018-02-14T01:02:35.285Z,39.20
2018-02-14T01:05:03.357Z,31.33
2018-02-14T01:07:31.765Z,36.25
2018-02-14T01:09:59.837Z,32.17
2018-02-14T01:12:27.905Z,33.47
2018-02-14T01:14:55.975Z,32.80
2018-02-14T01:17:24.033Z,35.73
2018-02-14T01:19:58.713Z,40.13
2018-02-14T01:22:26.862Z,38.67
2018-02-14T01:24:55.041Z,22.58
2018-02-14T01:27:23.101Z,29.23
2018-02-14T01:29:53.086Z,26.60
2018-02-14T01:32:21.157Z,26.97
2018-02-14T01:34:50.106Z,27.17
2018-02-14T01:37:18.172Z,27.83
2018-02-14T01:39:46.257Z,35.23
2018-02-14T01:42:14.324Z,24.70
2018-02-14T01:44:42.397Z,25.23
2018-02-14T01:47:10.469Z,31.90
2018-02-14T01:49:38.565Z,41.00
2018-02-14T01:52:06.657Z,27.70
2018-02-14T01:54:34.818Z,25.37
2018-02-14T01:57:02.889Z,26.83
2018-02-14T01:59:30.961Z,34.70
2018-02-14T02:01:59.045Z,28.60
2018-02-14T02:04:27.118Z,36.80
2018-02-14T02:06:55.194Z,30.77
2018-02-14T02:09:23.253Z,31.90
2018-02-14T02:11:52.462Z,28.05
2018-02-14T02:14:20.528Z,37.37
2018-02-14T02:16:48.640Z,28.63
2018-02-14T02:19:16.702Z,30.60
2018-02-14T02:21:44.885Z,32.93
2018-02-14T02:24:12.965Z,30.27
2018-02-14T02:26:41.039Z,33.27
2018-02-14T02:29:09.097Z,29.90
2018-02-14T02:31:37.190Z,26.65
2018-02-14T02:34:05.251Z,37.22
2018-02-14T02:36:33.335Z,30.20
2018-02-14T02:39:01.393Z,33.17
2018-02-14T02:41:29.765Z,34.60
2018-02-14T02:43:57.822Z,27.17
2018-02-14T02:46:26.684Z,30.53
2018-02-14T02:48:54.754Z,30.43
2018-02-14T02:51:22.930Z,26.13
2018-02-14T02:53:52.880Z,37.92
2018-02-14T02:56:20.951Z,32.97
2018-02-14T02:58:49.034Z,33.13
2018-02-14T03:01:17.182Z,29.17
2018-02-14T03:03:45.257Z,34.00
2018-02-14T03:06:13.437Z,27.97
2018-02-14T03:08:41.498Z,29.73
2018-02-14T03:11:09.580Z,25.57
2018-02-14T03:13:37.657Z,28.67
2018-02-14T03:16:05.845Z,39.00
2018-02-14T03:18:33.909Z,28.37
2018-02-14T03:21:02.058Z,35.50
2018-02-14T03:23:30.122Z,30.17
2018-02-14T03:25:58.216Z,24.63
2018-02-14T03:28:26.277Z,33.57
2018-02-14T03:30:54.418Z,40.42
2018-02-14T03:33:22.478Z,27.63
2018-02-14T03:35:50.634Z,26.03
2018-02-14T03:38:18.713Z,32.83
2018-02-14T03:40:46.816Z,27.43
2018-02-14T03:43:14.879Z,31.03
2018-02-14T03:45:42.952Z,23.90
2018-02-14T03:48:11.027Z,30.67
2018-02-14T03:50:39.181Z,38.43
2018-02-14T03:53:07.291Z,30.15
2018-02-14T03:55:35.369Z,30.50
2018-02-14T03:58:04.706Z,30.10
2018-02-14T04:00:34.567Z,26.32
2018-02-14T04:03:03.929Z,32.10
2018-02-14T04:05:33.910Z,23.53
2018-02-14T04:08:01.982Z,33.08
2018-02-14T04:10:30.056Z,30.80
2018-02-14T04:12:58.141Z,27.62
2018-02-14T04:15:26.209Z,33.30
2018-02-14T04:17:54.293Z,33.80
2018-02-14T04:20:22.370Z,37.60
2018-02-14T04:22:50.449Z,33.77
2018-02-14T04:25:18.519Z,42.72
2018-02-14T04:27:46.593Z,41.60
2018-02-14T04:30:20.242Z,27.50
2018-02-14T04:32:49.102Z,40.20
2018-02-14T04:35:17.170Z,31.27
2018-02-14T04:37:45.233Z,37.07
2018-02-14T04:40:13.309Z,39.23
2018-02-14T04:42:41.512Z,30.73
2018-02-14T04:45:09.569Z,36.63
2018-02-14T04:47:37.636Z,38.80
2018-02-14T04:50:05.726Z,34.67
2018-02-14T04:52:34.455Z,28.17
2018-02-14T04:55:02.522Z,39.08
2018-02-14T04:57:30.678Z,43.17
2018-02-14T04:59:58.762Z,37.63
2018-02-14T05:02:26.829Z,42.50
2018-02-14T05:04:54.914Z,31.30
2018-02-14T05:07:23.090Z,37.40
2018-02-14T05:09:52.400Z,31.67
2018-02-14T05:12:20.573Z,36.75
2018-02-14T05:14:48.649Z,31.77
2018-02-14T05:17:16.721Z,29.20
2018-02-14T05:19:44.797Z,36.97
2018-02-14T05:22:12.866Z,36.43
2018-02-14T05:24:40.937Z,37.60
2018-02-14T05:27:09.063Z,34.97
2018-02-14T05:29:37.105Z,28.03
2018-02-14T05:32:05.177Z,32.95
2018-02-14T05:34:33.248Z,29.90
2018-02-14T05:37:01.318Z,28.47
2018-02-14T05:39:29.409Z,28.47
2018-02-14T05:41:57.491Z,32.80
2018-02-14T05:44:25.544Z,32.13
2018-02-14T05:46:53.733Z,37.97
2018-02-14T05:49:21.802Z,31.75
2018-02-14T05:51:49.901Z,34.10
2018-02-14T05:54:17.962Z,31.40
2018-02-14T05:56:46.045Z,46.50
2018-02-14T05:59:14.121Z,37.17
2018-02-14T06:01:42.207Z,30.57
2018-02-14T06:04:10.343Z,35.72
2018-02-14T06:06:38.401Z,34.13
2018-02-14T06:09:07.233Z,27.00
2018-02-14T06:11:36.224Z,34.60
2018-02-14T06:14:05.413Z,31.00
2018-02-14T06:16:33.489Z,38.47
2018-02-14T06:19:01.545Z,39.10
2018-02-14T06:21:30.381Z,32.88
2018-02-14T06:23:58.448Z,45.33
2018-02-14T06:26:26.516Z,68.07
2018-02-14T06:28:54.617Z,32.60
2018-02-14T06:31:22.685Z,30.85
2018-02-14T06:33:50.753Z,30.30
2018-02-14T06:36:18.814Z,32.10
2018-02-14T06:38:46.928Z,33.55
2018-02-14T06:41:15.014Z,38.20
2018-02-14T06:43:43.177Z,42.90
2018-02-14T06:46:11.248Z,35.47
2018-02-14T06:48:39.340Z,47.00
2018-02-14T06:51:07.405Z,42.60
2018-02-14T06:53:36.023Z,42.62
2018-02-14T06:56:04.175Z,33.08
2018-02-14T06:58:32.353Z,38.10
2018-02-14T07:01:00.442Z,34.50
2018-02-14T07:03:28.522Z,28.97
2018-02-14T07:05:56.586Z,31.33
2018-02-14T07:08:24.677Z,31.85
2018-02-14T07:10:52.750Z,179.47
2018-02-14T07:13:20.817Z,90.23
2018-02-14T07:15:48.886Z,33.93
2018-02-14T07:18:17.073Z,30.73
2018-02-14T07:20:45.133Z,31.80
2018-02-14T07:23:13.206Z,33.37
2018-02-14T07:25:41.274Z,47.63
2018-02-14T07:28:10.277Z,36.16
2018-02-14T07:30:39.466Z,34.53
2018-02-14T07:33:07.569Z,29.35
2018-02-14T07:35:35.654Z,29.27
2018-02-14T07:38:03.742Z,30.20
2018-02-14T07:40:32.583Z,22.20
2018-02-14T07:43:00.694Z,21.12
2018-02-14T07:45:28.767Z,24.50
2018-02-14T07:47:56.933Z,24.65
2018-02-14T07:50:24.997Z,28.10
2018-02-14T07:52:53.062Z,27.60
2018-02-14T07:55:21.113Z,33.03
2018-02-14T07:57:49.977Z,31.37
2018-02-14T08:00:18.039Z,26.03
2018-02-14T08:02:46.109Z,38.87
2018-02-14T08:05:14.166Z,26.43
2018-02-14T08:07:42.251Z,26.67
2018-02-14T08:10:10.318Z,33.20
2018-02-14T08:12:38.438Z,40.60
2018-02-14T08:15:06.505Z,32.90
2018-02-14T08:17:34.588Z,28.60
2018-02-14T08:20:02.733Z,29.23
2018-02-14T08:22:30.803Z,31.60
2018-02-14T08:24:58.874Z,23.57
2018-02-14T08:27:26.972Z,33.90
2018-02-14T08:29:55.036Z,34.93
2018-02-14T08:32:23.109Z,30.37
2018-02-14T08:34:52.186Z,25.25
2018-02-14T08:37:21.749Z,32.80
2018-02-14T08:39:49.822Z,31.63
2018-02-14T08:42:17.904Z,44.67
2018-02-14T08:44:45.989Z,31.60
2018-02-14T08:47:14.171Z,29.48
2018-02-14T08:49:42.229Z,35.17
2018-02-14T08:52:11.198Z,33.54
2018-02-14T08:54:39.282Z,25.33
2018-02-14T08:57:07.606Z,28.08
2018-02-14T08:59:35.677Z,23.10
2018-02-14T09:02:03.748Z,16.80
2018-02-14T09:04:31.922Z,15.63
2018-02-14T09:06:59.984Z,22.90
2018-02-14T09:09:28.073Z,21.60
2018-02-14T09:11:56.138Z,12.57
2018-02-14T09:14:24.251Z,17.37
2018-02-14T09:16:52.313Z,18.43
2018-02-14T09:19:20.383Z,12.45
2018-02-14T09:21:48.433Z,9.90
2018-02-14T09:24:16.498Z,13.70
2018-02-14T09:26:44.552Z,13.53
2018-02-14T09:29:14.245Z,20.23
2018-02-14T09:31:42.305Z,10.82
2018-02-14T09:34:11.593Z,10.73
2018-02-14T09:36:39.670Z,11.73
2018-02-14T09:39:07.749Z,12.27
2018-02-14T09:41:35.808Z,6.93
2018-02-14T09:44:03.862Z,11.38
2018-02-14T09:46:31.914Z,17.30
2018-02-14T09:49:00.737Z,8.75
2018-02-14T09:51:28.801Z,11.80
2018-02-14T09:53:56.861Z,17.37
2018-02-14T09:56:25.717Z,11.83
2018-02-14T09:58:53.781Z,10.57
2018-02-14T10:01:21.834Z,16.50
2018-02-14T10:03:49.946Z,8.95
2018-02-14T10:06:18.010Z,14.67
2018-02-14T10:08:46.067Z,7.70
2018-02-14T10:11:14.121Z,11.03
2018-02-14T10:13:42.927Z,9.60
2018-02-14T10:16:12.086Z,9.32
2018-02-14T10:18:40.158Z,7.63
2018-02-14T10:21:08.214Z,10.13
2018-02-14T10:23:36.270Z,9.47
2018-02-14T10:26:04.313Z,9.70
2018-02-14T10:28:33.134Z,6.67
2018-02-14T10:31:01.186Z,9.80
2018-02-14T10:33:30.011Z,6.70
2018-02-14T10:35:58.116Z,11.33
2018-02-14T10:38:26.206Z,12.45
2018-02-14T10:40:54.265Z,9.45
2018-02-14T10:43:22.331Z,7.12
2018-02-14T10:45:50.380Z,7.22
2018-02-14T10:48:19.306Z,11.07
2018-02-14T10:50:47.357Z,7.47
2018-02-14T10:53:15.422Z,11.83
2018-02-14T10:55:43.531Z,15.45
2018-02-14T10:58:12.559Z,10.98
2018-02-14T11:00:46.203Z,18.10
2018-02-14T11:03:19.861Z,9.13
2018-02-14T11:05:53.606Z,15.80
2018-02-14T11:08:21.733Z,10.47
2018-02-14T11:10:49.805Z,10.67
2018-02-14T11:13:17.857Z,8.60
2018-02-14T11:15:45.949Z,8.50
2018-02-14T11:18:14.034Z,9.30
2018-02-14T11:20:42.729Z,9.73
2018-02-14T11:23:10.777Z,21.03
2018-02-14T11:25:38.829Z,9.70
2018-02-14T11:28:06.886Z,17.05
2018-02-14T11:30:35.715Z,11.73
2018-02-14T11:33:03.830Z,13.35
2018-02-14T11:35:31.908Z,20.85
2018-02-14T11:38:00.633Z,10.93
2018-02-14T11:40:29.463Z,12.80
2018-02-14T11:42:57.505Z,8.60
2018-02-14T11:45:26.370Z,12.63
2018-02-14T11:47:55.193Z,11.83
2018-02-14T11:50:24.027Z,10.40
2018-02-14T11:52:53.139Z,11.03
2018-02-14T11:55:21.212Z,10.23
2018-02-14T11:57:49.265Z,11.60
2018-02-14T12:00:17.481Z,14.98
2018-02-14T12:02:45.642Z,20.37
2018-02-14T12:05:13.709Z,18.57
2018-02-14T12:07:41.806Z,15.20
2018-02-14T12:10:09.883Z,15.60
2018-02-14T12:12:37.938Z,14.83
2018-02-14T12:15:05.990Z,13.15
2018-02-14T12:17:34.107Z,13.77
2018-02-14T12:20:02.182Z,12.47
2018-02-14T12:22:30.226Z,13.10
2018-02-14T12:24:58.337Z,12.23
2018-02-14T12:27:26.407Z,11.48
2018-02-14T12:29:54.454Z,11.87
2018-02-14T12:32:22.538Z,12.98
2018-02-14T12:34:50.605Z,13.67
2018-02-14T12:37:18.662Z,17.83
2018-02-14T12:39:47.472Z,17.37
2018-02-14T12:42:15.529Z,20.23
2018-02-14T12:44:43.770Z,16.15
2018-02-14T12:47:11.825Z,18.33
2018-02-14T12:49:39.892Z,19.23
2018-02-14T12:52:07.964Z,17.12
2018-02-14T12:54:36.009Z,19.67
2018-02-14T12:57:04.842Z,16.12
2018-02-14T12:59:32.933Z,17.30
2018-02-14T13:02:01.011Z,15.38
2018-02-14T13:04:29.159Z,20.87
2018-02-14T13:06:57.271Z,18.55
2018-02-14T13:09:25.426Z,19.33
2018-02-14T13:11:53.488Z,20.60
2018-02-14T13:14:21.613Z,17.83
2018-02-14T13:16:49.786Z,24.30
2018-02-14T13:19:17.849Z,20.80
2018-02-14T13:21:45.906Z,21.20
2018-02-14T13:24:14.996Z,28.23
2018-02-14T13:26:44.183Z,21.13
2018-02-14T13:29:14.149Z,27.57
2018-02-14T13:31:42.239Z,22.65
2018-02-14T13:34:10.411Z,27.62
2018-02-14T13:36:38.478Z,26.33
2018-02-14T13:39:06.554Z,25.47
2018-02-14T13:41:34.641Z,25.13
2018-02-14T13:44:02.693Z,33.97
2018-02-14T13:46:30.767Z,32.70
2018-02-14T13:48:58.829Z,19.70
2018-02-14T13:51:26.946Z,21.00
2018-02-14T13:53:55.217Z,21.50
2018-02-14T13:56:23.277Z,20.98
2018-02-14T13:58:52.459Z,20.73
2018-02-14T14:01:20.541Z,22.15
2018-02-14T14:03:48.605Z,25.63
2018-02-14T14:06:16.680Z,24.37
2018-02-14T14:08:45.521Z,20.65
2018-02-14T14:11:14.709Z,22.27
2018-02-14T14:13:42.765Z,32.53
2018-02-14T14:16:10.842Z,55.20
2018-02-14T14:18:38.898Z,37.33
2018-02-14T14:21:07.730Z,25.23
2018-02-14T14:23:35.826Z,26.90
2018-02-14T14:26:03.901Z,27.13
2018-02-14T14:28:31.967Z,32.30
2018-02-14T14:31:00.030Z,30.40
2018-02-14T14:33:28.131Z,30.23
2018-02-14T14:35:56.201Z,37.47
2018-02-14T14:38:24.394Z,37.53
2018-02-14T14:40:52.446Z,37.27
2018-02-14T14:43:20.544Z,28.07
2018-02-14T14:45:48.571Z,50.03
2018-02-14T14:48:16.653Z,26.90
2018-02-14T14:50:46.106Z,46.10
2018-02-14T14:53:15.393Z,32.70
2018-02-14T14:55:43.457Z,38.27
2018-02-14T14:58:11.530Z,41.93
2018-02-14T15:00:39.700Z,35.40
2018-02-14T15:03:07.769Z,47.63
2018-02-14T15:05:35.873Z,38.33
2018-02-14T15:08:03.937Z,42.42
2018-02-14T15:10:32.000Z,45.93
2018-02-14T15:13:00.127Z,39.45
2018-02-14T15:15:28.181Z,38.70
2018-02-14T15:17:56.258Z,49.57
2018-02-14T15:20:24.333Z,58.47
2018-02-14T15:22:52.450Z,41.03
2018-02-14T15:25:21.305Z,44.53
2018-02-14T15:27:49.408Z,56.33
2018-02-14T15:30:17.476Z,46.20
2018-02-14T15:32:46.634Z,38.28
2018-02-14T15:35:15.857Z,44.03
2018-02-14T15:37:43.930Z,45.97
2018-02-14T15:40:12.024Z,39.80
2018-02-14T15:42:40.070Z,51.27
2018-02-14T15:45:09.978Z,40.28
2018-02-14T15:47:38.038Z,41.15
2018-02-14T15:50:06.872Z,47.00
2018-02-14T15:52:35.023Z,54.27
2018-02-14T15:55:03.147Z,42.93
2018-02-14T15:57:31.317Z,47.50
2018-02-14T15:59:59.377Z,45.07
2018-02-14T16:02:27.462Z,47.60
2018-02-14T16:04:55.558Z,52.37
2018-02-14T16:07:23.631Z,55.07
2018-02-14T16:09:52.211Z,50.57
2018-02-14T16:12:20.389Z,46.53
2018-02-14T16:14:48.445Z,47.22
2018-02-14T16:17:16.609Z,45.23
2018-02-14T16:19:44.673Z,44.27
2018-02-14T16:22:12.732Z,36.87
2018-02-14T16:24:41.570Z,46.87
2018-02-14T16:27:09.661Z,48.75
2018-02-14T16:29:37.721Z,43.27
2018-02-14T16:32:05.800Z,49.42
2018-02-14T16:34:33.859Z,48.77
2018-02-14T16:37:01.937Z,49.88
2018-02-14T16:39:30.005Z,44.00
2018-02-14T16:41:58.057Z,50.00
2018-02-14T16:44:26.886Z,56.43
2018-02-14T16:46:54.983Z,44.73
2018-02-14T16:49:23.777Z,52.77
2018-02-14T16:51:52.377Z,47.74
2018-02-14T16:54:20.553Z,49.63
2018-02-14T16:56:48.626Z,41.93
2018-02-14T16:59:18.271Z,46.27
2018-02-14T17:01:47.814Z,55.75
2018-02-14T17:04:17.022Z,50.93
2018-02-14T17:06:45.137Z,53.67
2018-02-14T17:09:13.207Z,48.53
2018-02-14T17:11:41.270Z,48.00
2018-02-14T17:14:09.354Z,47.65
2018-02-14T17:16:37.422Z,49.30
2018-02-14T17:19:05.502Z,58.07
2018-02-14T17:21:33.568Z,62.20
2018-02-14T17:24:01.646Z,52.93
2018-02-14T17:26:29.747Z,52.83
2018-02-14T17:28:57.830Z,62.10
2018-02-14T17:31:25.894Z,46.30
2018-02-14T17:33:53.992Z,51.30
2018-02-14T17:36:22.168Z,54.40
2018-02-14T17:38:50.231Z,67.40
2018-02-14T17:41:18.294Z,53.20
2018-02-14T17:43:47.482Z,48.60
2018-02-14T17:46:15.550Z,51.30
2018-02-14T17:48:43.660Z,55.08
2018-02-14T17:51:11.713Z,51.67
2018-02-14T17:53:39.785Z,54.72
2018-02-14T17:56:07.896Z,45.25
2018-02-14T17:58:35.974Z,53.27
2018-02-14T18:01:04.142Z,51.10
2018-02-14T18:03:33.044Z,53.33
2018-02-14T18:06:01.119Z,51.08
2018-02-14T18:08:29.190Z,51.67
2018-02-14T18:10:57.265Z,48.50
2018-02-14T18:13:25.346Z,54.70
2018-02-14T18:15:53.418Z,56.50
2018-02-14T18:18:21.594Z,54.00
2018-02-14T18:20:49.657Z,54.70
2018-02-14T18:23:18.294Z,50.35
2018-02-14T18:25:48.350Z,54.43
2018-02-14T18:28:16.458Z,50.03
2018-02-14T18:30:44.522Z,53.87
2018-02-14T18:33:12.609Z,60.23
2018-02-14T18:35:40.690Z,61.30
2018-02-14T18:38:08.869Z,47.95
2018-02-14T18:40:37.050Z,49.53
2018-02-14T18:43:05.135Z,59.03
2018-02-14T18:45:33.202Z,56.33
2018-02-14T18:48:01.263Z,66.03
2018-02-14T18:50:29.357Z,57.62
2018-02-14T18:52:57.414Z,62.30
2018-02-14T18:55:25.489Z,63.47
2018-02-14T18:57:53.576Z,64.70
2018-02-14T19:00:21.762Z,63.50
2018-02-14T19:02:49.825Z,57.88
2018-02-14T19:05:19.629Z,55.00
2018-02-14T19:07:48.815Z,59.27
2018-02-14T19:10:16.931Z,58.87
2018-02-14T19:12:44.994Z,70.87
2018-02-14T19:15:13.084Z,62.03
2018-02-14T19:17:41.141Z,68.80
2018-02-14T19:20:09.341Z,64.70
2018-02-14T19:22:37.409Z,59.23
2018-02-14T19:25:05.481Z,62.67
2018-02-14T19:27:33.554Z,64.93
2018-02-14T19:30:01.621Z,64.83
2018-02-14T19:32:29.697Z,53.63
2018-02-14T19:34:57.757Z,58.10
2018-02-14T19:37:25.838Z,65.07
2018-02-14T19:39:53.902Z,63.67
2018-02-14T19:42:21.984Z,55.87
2018-02-14T19:44:50.038Z,62.47
2018-02-14T19:47:20.002Z,56.90
2018-02-14T19:49:48.062Z,59.70
2018-02-14T19:52:16.150Z,63.60
2018-02-14T19:54:44.243Z,66.37
2018-02-14T19:57:12.423Z,61.78
2018-02-14T19:59:40.500Z,61.80
2018-02-14T20:02:09.462Z,63.38
2018-02-14T20:04:37.518Z,68.57
2018-02-14T20:07:06.470Z,69.83
2018-02-14T20:09:34.537Z,65.05
2018-02-14T20:12:02.609Z,53.40
2018-02-14T20:14:30.679Z,53.55
2018-02-14T20:16:58.743Z,64.17
2018-02-14T20:19:26.858Z,50.92
2018-02-14T20:21:54.918Z,64.12
2018-02-14T20:24:22.994Z,66.43
2018-02-14T20:26:52.177Z,69.00
2018-02-14T20:29:20.278Z,63.37
2018-02-14T20:31:48.341Z,68.90
2018-02-14T20:34:16.429Z,72.80
2018-02-14T20:36:44.493Z,71.00
2018-02-14T20:39:12.565Z,61.17
2018-02-14T20:41:40.631Z,62.93
2018-02-14T20:44:08.734Z,59.03
2018-02-14T20:46:36.813Z,68.17
2018-02-14T20:49:04.989Z,93.30
2018-02-14T20:51:33.066Z,80.60
2018-02-14T20:54:01.150Z,76.27
2018-02-14T20:56:29.213Z,76.68
2018-02-14T20:58:57.278Z,70.57
2018-02-14T21:01:25.379Z,76.82
2018-02-14T21:03:53.453Z,56.97
2018-02-14T21:06:21.525Z,73.43
2018-02-14T21:08:50.718Z,64.97
2018-02-14T21:11:18.909Z,75.23
2018-02-14T21:13:46.988Z,55.50
2018-02-14T21:16:15.042Z,61.57
2018-02-14T21:18:43.141Z,53.30
2018-02-14T21:21:11.202Z,71.18
2018-02-14T21:23:39.263Z,58.22
2018-02-14T21:26:07.334Z,60.77
2018-02-14T21:28:35.410Z,54.70
2018-02-14T21:31:03.559Z,54.50
2018-02-14T21:33:31.590Z,69.53
2018-02-14T21:35:59.674Z,60.80
2018-02-14T21:38:27.758Z,57.00
2018-02-14T21:40:55.817Z,55.67
2018-02-14T21:43:25.005Z,55.47
2018-02-14T21:45:53.081Z,66.30
2018-02-14T21:48:21.161Z,54.87
2018-02-14T21:50:49.227Z,62.25
2018-02-14T21:53:17.321Z,52.78
2018-02-14T21:55:46.039Z,55.73
2018-02-14T21:58:14.922Z,49.27
2018-02-14T22:00:43.102Z,45.73
2018-02-14T22:03:11.174Z,58.28
2018-02-14T22:05:39.246Z,47.43
2018-02-14T22:08:07.320Z,45.83
2018-02-14T22:10:35.392Z,53.90
2018-02-14T22:13:03.457Z,53.20
2018-02-14T22:15:31.521Z,54.13
2018-02-14T22:18:00.366Z,53.65
2018-02-14T22:20:28.442Z,57.20
2018-02-14T22:22:56.515Z,54.63
2018-02-14T22:25:25.707Z,45.47
2018-02-14T22:27:53.765Z,51.73
2018-02-14T22:30:21.958Z,48.50
2018-02-14T22:32:50.145Z,56.03
2018-02-14T22:35:18.214Z,54.03
2018-02-14T22:37:46.273Z,49.03
2018-02-14T22:40:14.350Z,48.83
2018-02-14T22:42:42.437Z,46.37
2018-02-14T22:45:10.510Z,47.37
2018-02-14T22:47:38.574Z,48.83
2018-02-14T22:50:06.656Z,53.60
2018-02-14T22:52:34.718Z,45.73
2018-02-14T22:55:02.796Z,46.72
2018-02-14T22:57:30.860Z,45.28
2018-02-14T22:59:58.941Z,50.90
2018-02-14T23:02:27.462Z,46.00
2018-02-14T23:04:56.396Z,46.35
2018-02-14T23:07:26.378Z,51.63
2018-02-14T23:09:54.925Z,63.23
2018-02-14T23:12:23.280Z,51.92
2018-02-14T23:14:52.918Z,48.70
2018-02-14T23:17:20.995Z,46.67
2018-02-14T23:19:49.057Z,47.00
2018-02-14T23:22:18.002Z,46.77
2018-02-14T23:24:46.078Z,48.93
2018-02-14T23:27:14.253Z,46.42
2018-02-14T23:29:42.347Z,62.33
2018-02-14T23:32:10.409Z,51.90
2018-02-14T23:34:38.483Z,46.80
2018-02-14T23:37:06.563Z,45.13
2018-02-14T23:39:34.652Z,48.43
2018-02-14T23:42:02.714Z,43.33
2018-02-14T23:44:30.778Z,45.08
2018-02-14T23:46:58.865Z,43.13
2018-02-14T23:49:26.933Z,48.87
2018-02-14T23:51:55.034Z,36.87
2018-02-14T23:54:23.110Z,46.37
2018-02-14T23:56:52.323Z,38.17
2018-02-14T23:59:20.477Z,40.03
